Flight Track Log - Related Links

Times and Time Zones

All times are in EDT time to prevent confusion due to time zone crossing. See the JZA8909 flight status page for this flight to view local times or setup timezone preferences in your user account.

Time Position Orientation Groundspeed Altitude Reporting Facility
EDT Latitude Longitude Course Direction KTS MPH feet Rate Location/Type
Thu 05:32:02 AM 46.7500 -71.4167 244° Southwest 150 173 2,300  Level Montreal Center
Thu 05:33:02 AM 46.7167 -71.4667 226° Southwest 180 207 4,500 1,850 Climbing Montreal Center
Thu 05:34:02 AM 46.7167 -71.5333 270° West 220 253 6,000 1,700 Climbing Montreal Center
Thu 05:35:00 AM 46.7259 -71.8130 285° West  Level FlightAware Approximate
Thu 05:35:02 AM 46.7333 -71.6333 284° West 230 265 7,900  Level Montreal Center
Thu 05:36:00 AM 46.6777 -71.9001 231° Southwest  Level FlightAware Approximate
Thu 05:36:02 AM 46.7000 -71.7167 240° Southwest 240 276 9,800  Level Montreal Center
Thu 05:37:00 AM 46.6329 -72.0013 244° Southwest  Level FlightAware Approximate
Thu 05:37:02 AM 46.6833 -71.8167 256° West 260 299 11,000  Level Montreal Center
Thu 05:38:02 AM 46.6500 -71.9167 244° Southwest 260 299 12,100 1,150 Climbing Montreal Center
Thu 05:39:02 AM 46.6333 -72.0167 256° West 270 311 13,300 1,050 Climbing Montreal Center
Thu 05:40:02 AM 46.6000 -72.1167 244° Southwest 270 311 14,200 950 Climbing Montreal Center
Thu 05:41:02 AM 46.5667 -72.2333 247° West 280 322 15,200 950 Climbing Montreal Center
Thu 05:42:02 AM 46.5333 -72.3333 244° Southwest 280 322 16,100 850 Climbing Montreal Center
Thu 05:43:02 AM 46.5000 -72.4333 244° Southwest 280 322 16,900 900 Climbing Montreal Center
Thu 05:44:02 AM 46.4833 -72.5500 258° West 280 322 17,900 600 Climbing Montreal Center
Thu 05:45:02 AM 46.4667 -72.6500 256° West 280 322 18,100 550 Climbing Montreal Center
Thu 05:46:02 AM 46.4333 -72.7500 244° Southwest 280 322 19,000 850 Climbing Montreal Center
Thu 05:47:02 AM 46.4000 -72.8500 244° Southwest 270 311 19,800 800 Climbing Montreal Center
Thu 05:48:02 AM 46.3667 -72.9500 244° Southwest 270 311 20,600 850 Climbing Montreal Center
Thu 05:49:02 AM 46.3333 -73.0500 244° Southwest 260 299 21,500 900 Climbing Montreal Center
Thu 05:50:02 AM 46.3167 -73.1500 256° West 260 299 22,400 850 Climbing Montreal Center
Thu 05:51:02 AM 46.3000 -73.2500 256° West 260 299 23,200 750 Climbing Montreal Center
Thu 05:52:02 AM 46.2667 -73.3500 244° Southwest 250 288 23,900 400 Climbing Montreal Center
Thu 05:53:02 AM 46.2333 -73.4500 244° Southwest 260 299 24,000 50 Climbing Montreal Center
Thu 05:54:02 AM 46.2000 -73.5500 244° Southwest 280 322 24,000  Level Montreal Center
Thu 05:55:02 AM 46.1667 -73.6500 244° Southwest 290 334 24,000  Level Montreal Center
Thu 05:56:02 AM 46.1333 -73.7667 248° West 290 334 24,000  Level Montreal Center
Thu 05:57:02 AM 46.1000 -73.8667 244° Southwest 290 334 24,000  Level Montreal Center
Thu 05:58:02 AM 46.0833 -73.9667 257° West 290 334 24,000  Level Montreal Center
Thu 05:59:02 AM 46.0500 -74.0833 248° West 290 334 24,000  Level Montreal Center
Thu 06:00:02 AM 46.0167 -74.1833 244° Southwest 300 345 24,000  Level Montreal Center
Thu 06:01:02 AM 45.9833 -74.3000 248° West 300 345 24,000  Level Montreal Center
Thu 06:02:02 AM 45.9500 -74.4167 248° West 300 345 24,000  Level Montreal Center
Thu 06:03:02 AM 45.9167 -74.5167 244° Southwest 300 345 24,000  Level Montreal Center
Thu 06:04:02 AM 45.8833 -74.6500 250° West 300 345 24,000  Level Montreal Center
Thu 06:05:02 AM 45.8500 -74.7667 248° West 300 345 24,000  Level Montreal Center
Thu 06:06:02 AM 45.8167 -74.8667 244° Southwest 290 334 24,000  Level Montreal Center
Thu 06:07:02 AM 45.7833 -74.9500 240° Southwest 290 334 24,000  Level Montreal Center
Thu 06:08:02 AM 45.7500 -75.0833 250° West 290 334 24,000  Level Montreal Center
Thu 06:09:02 AM 45.7167 -75.1833 245° Southwest 290 334 24,000  Level Montreal Center
Thu 06:10:02 AM 45.6833 -75.3000 248° West 290 334 24,000  Level Montreal Center
Thu 06:11:02 AM 45.6500 -75.4000 245° Southwest 290 334 24,000  Level Montreal Center
Thu 06:12:02 AM 45.6333 -75.5167 258° West 300 345 24,000  Level Montreal Center
Thu 06:13:02 AM 45.6000 -75.6167 245° Southwest 300 345 24,000  Level Montreal Center
Thu 06:14:02 AM 45.5667 -75.7333 248° West 300 345 24,000  Level Montreal Center
Thu 06:15:02 AM 45.5333 -75.8500 248° West 300 345 24,000  Level Montreal Center
Thu 06:16:02 AM 45.5000 -75.9500 245° Southwest 310 357 24,000  Level Montreal Center
Thu 06:17:02 AM 45.4500 -76.0667 239° Southwest 310 357 24,000  Level Montreal Center
Thu 06:18:02 AM 45.4167 -76.1667 245° Southwest 310 357 24,000  Level Montreal Center
Thu 06:19:02 AM 45.3667 -76.2833 239° Southwest 310 357 24,000  Level Montreal Center
Thu 06:20:02 AM 45.3333 -76.3667 240° Southwest 310 357 24,000  Level Montreal Center
Thu 06:21:02 AM 45.2833 -76.5000 242° Southwest 300 345 24,000  Level Montreal Center
Thu 06:22:02 AM 45.2500 -76.5833 240° Southwest 300 345 24,000  Level Montreal Center
Thu 06:23:02 AM 45.2000 -76.7000 239° Southwest 300 345 24,000  Level Montreal Center
Thu 06:24:02 AM 45.1667 -76.8000 245° Southwest 300 345 24,000  Level Montreal Center
Thu 06:25:02 AM 45.1167 -76.9167 239° Southwest 300 345 24,000  Level Montreal Center
Thu 06:25:48 AM 45.1000 -76.9667 245° Southwest 310 357 24,000  Level Toronto Center
Thu 06:26:48 AM 45.0500 -77.0667 235° Southwest 300 345 24,000  Level Toronto Center
Thu 06:27:48 AM 45.0000 -77.1833 239° Southwest 310 357 24,000  Level Toronto Center
Thu 06:28:48 AM 44.9667 -77.2833 245° Southwest 300 345 24,000  Level Toronto Center
Thu 06:29:48 AM 44.9333 -77.3667 241° Southwest 300 345 24,000  Level Toronto Center
Thu 06:30:48 AM 44.9000 -77.4833 248° West 300 345 24,000  Level Toronto Center
Thu 06:31:48 AM 44.8500 -77.5833 235° Southwest 310 357 24,000  Level Toronto Center
Thu 06:32:48 AM 44.8000 -77.6833 235° Southwest 300 345 24,000  Level Toronto Center
Thu 06:33:48 AM 44.7500 -77.8000 239° Southwest 300 345 24,000  Level Toronto Center
Thu 06:34:48 AM 44.7167 -77.9000 245° Southwest 300 345 24,000  Level Toronto Center
Thu 06:35:48 AM 44.6667 -77.9833 230° Southwest 300 345 24,000  Level Toronto Center
Thu 06:36:48 AM 44.6333 -78.1167 251° West 300 345 24,000  Level Toronto Center
Thu 06:37:48 AM 44.5833 -78.2000 230° Southwest 310 357 24,000  Level Toronto Center
Thu 06:38:48 AM 44.5333 -78.3000 235° Southwest 300 345 24,000 -50 Level Toronto Center
Thu 06:39:48 AM 44.5000 -78.4167 248° West 310 357 23,900 -750 Descending Toronto Center
Thu 06:40:48 AM 44.4667 -78.5167 245° Southwest 300 345 22,500 -1,500 Descending Toronto Center
Thu 06:41:48 AM 44.4167 -78.6000 230° Southwest 310 357 20,900 -1,550 Descending Toronto Center
Thu 06:42:48 AM 44.3833 -78.7167 248° West 320 368 19,400 -1,500 Descending Toronto Center
Thu 06:43:48 AM 44.3333 -78.8167 235° Southwest 310 357 17,900 -1,300 Descending Toronto Center
Thu 06:44:48 AM 44.2833 -78.9333 239° Southwest 310 357 16,800 -1,350 Descending Toronto Center
Thu 06:45:48 AM 44.2500 -79.0333 245° Southwest 310 357 15,200 -1,650 Descending Toronto Center
Thu 06:46:48 AM 44.1667 -79.1000 210° Southwest 300 345 13,500 -1,650 Descending Toronto Center
Thu 06:47:48 AM 44.1000 -79.1667 216° Southwest 300 345 11,900 -1,400 Descending Toronto Center
Thu 06:48:48 AM 44.0500 -79.2333 224° Southwest 300 345 10,700 -1,000 Descending Toronto Center
Thu 06:49:48 AM 43.9833 -79.3167 222° Southwest 270 311 9,900 -750 Descending Toronto Center
Thu 06:50:48 AM 43.9167 -79.3500 200° South 270 311 9,200 -450 Descending Toronto Center
Thu 06:51:48 AM 43.8500 -79.4167 216° Southwest 270 311 9,000 -100 Descending Toronto Center
Thu 06:52:48 AM 43.8167 -79.5000 241° Southwest 260 299 9,000 -400 Level Toronto Center
Thu 06:53:48 AM 43.7833 -79.5833 241° Southwest 260 299 8,200 -500 Descending Toronto Center
Thu 06:54:48 AM 43.7500 -79.6833 245° Southwest 250 288 8,000 -700 Descending Toronto Center
Thu 06:55:48 AM 43.7167 -79.7500 235° Southwest 240 276 6,800 -1,600 Descending Toronto Center
Thu 06:56:48 AM 43.6667 -79.8167 224° Southwest 230 265 4,800 -1,400 Descending Toronto Center
Thu 06:57:48 AM 43.6167 -79.8833 224° Southwest 230 265 4,000 -850 Descending Toronto Center
Thu 06:58:48 AM 43.5833 -79.8667 160° South 190 219 3,100 -496 Descending Toronto Center
Thu 06:59:49 AM 43.5833 -79.7667 90° East 200 230 3,000 -400 Descending Toronto Center
Thu 07:00:48 AM 43.6167 -79.7333 36° Northeast 190 219 2,300 -857 Descending Toronto Center
Thu 07:01:48 AM 43.6500 -79.6833 47° Northeast 150 173 1,300 -850 Descending Toronto Center
Thu 07:02:48 AM 43.6667 -79.6333 65° Northeast 120 138 600 -700 Descending Toronto Center

Login

Don't have an account? Register now (free) for customized features, flight alerts, and more!